Fairfield, Alabama
Current Conditions -  °F | °C
As of 12:53 AM on Saturday 20 Dec 2014 (Local Time) from KBHM Reporting Station
Light Rain Light Rain  
Wind Chill: 34°   Ceiling: 1200
Heat Index: 40°   Visibility: 5mi
Dew Point: 37°   Wind: 8mph
Humidity: 89%   Direction: 360°N
Pressure: 30.17"   Gusts: NA
Location:  33.49°N, 86.91°W
Report Text: KBHM 200653Z 36007KT 5SM -RA BR FEW006 OVC012 04/03 A3017 RMK AO2 RAE00B18 SLP217 P0000 T00440028
Loading
Personal Weather Stations






























Interactive Weather Map New forecast layout! Learn more

10-Day Weather Forecast

Advertisements
Track Severe Weather on mobile